sensor_id;sensor_type;location;lat;lon;timestamp;temperature;humidity
15615;DHT22;7907;51.368;6.730;2023-04-29T00:00:13;12.80;99.90
15615;DHT22;7907;51.368;6.730;2023-04-29T00:02:45;12.70;99.90
15615;DHT22;7907;51.368;6.730;2023-04-29T00:05:25;12.70;99.90
15615;DHT22;7907;51.368;6.730;2023-04-29T00:08:01;12.70;99.90
15615;DHT22;7907;51.368;6.730;2023-04-29T00:10:42;12.60;99.90
15615;DHT22;7907;51.368;6.730;2023-04-29T00:13:13;12.60;99.90
15615;DHT22;7907;51.368;6.730;2023-04-29T00:15:50;12.60;99.90
15615;DHT22;7907;51.368;6.730;2023-04-29T00:18:19;12.50;99.90
15615;DHT22;7907;51.368;6.730;2023-04-29T00:21:08;12.50;99.90
15615;DHT22;7907;51.368;6.730;2023-04-29T00:23:48;12.40;99.90
15615;DHT22;7907;51.368;6.730;2023-04-29T00:26:18;12.30;99.90
15615;DHT22;7907;51.368;6.730;2023-04-29T00:28:59;12.20;99.90
15615;DHT22;7907;51.368;6.730;2023-04-29T00:31:39;12.20;99.90
15615;DHT22;7907;51.368;6.730;2023-04-29T00:34:28;12.10;99.90
15615;DHT22;7907;51.368;6.730;2023-04-29T00:36:58;12.20;99.90
15615;DHT22;7907;51.368;6.730;2023-04-29T00:49:17;12.10;99.90
15615;DHT22;7907;51.368;6.730;2023-04-29T00:55:16;12.10;99.90
15615;DHT22;7907;51.368;6.730;2023-04-29T00:58:00;12.00;99.90
15615;DHT22;7907;51.368;6.730;2023-04-29T01:03:30;12.00;99.90
15615;DHT22;7907;51.368;6.730;2023-04-29T01:06:22;11.90;99.90
15615;DHT22;7907;51.368;6.730;2023-04-29T01:08:57;11.90;99.90
15615;DHT22;7907;51.368;6.730;2023-04-29T01:38:16;11.70;99.90
15615;DHT22;7907;51.368;6.730;2023-04-29T01:40:29;11.70;99.90
15615;DHT22;7907;51.368;6.730;2023-04-29T01:43:05;11.70;99.90
15615;DHT22;7907;51.368;6.730;2023-04-29T01:46:06;11.60;99.90
15615;DHT22;7907;51.368;6.730;2023-04-29T01:48:35;11.60;99.90
15615;DHT22;7907;51.368;6.730;2023-04-29T01:51:12;11.50;99.90
15615;DHT22;7907;51.368;6.730;2023-04-29T01:53:41;11.50;99.90
15615;DHT22;7907;51.368;6.730;2023-04-29T01:56:14;11.50;99.90
15615;DHT22;7907;51.368;6.730;2023-04-29T01:59:18;11.50;99.90
15615;DHT22;7907;51.368;6.730;2023-04-29T02:04:51;11.40;99.90
15615;DHT22;7907;51.368;6.730;2023-04-29T02:10:46;11.40;99.90
15615;DHT22;7907;51.368;6.730;2023-04-29T02:24:39;11.30;99.90
15615;DHT22;7907;51.368;6.730;2023-04-29T02:27:08;11.20;99.90
15615;DHT22;7907;51.368;6.730;2023-04-29T02:36:32;11.20;99.90
15615;DHT22;7907;51.368;6.730;2023-04-29T02:54:18;11.00;99.90
15615;DHT22;7907;51.368;6.730;2023-04-29T02:59:59;11.00;99.90
15615;DHT22;7907;51.368;6.730;2023-04-29T03:02:32;10.90;99.90
15615;DHT22;7907;51.368;6.730;2023-04-29T03:05:53;11.00;99.90
15615;DHT22;7907;51.368;6.730;2023-04-29T03:11:15;11.00;99.90
15615;DHT22;7907;51.368;6.730;2023-04-29T05:26:03;10.90;99.90
15615;DHT22;7907;51.368;6.730;2023-04-29T05:28:50;10.90;99.90
15615;DHT22;7907;51.368;6.730;2023-04-29T05:31:27;10.90;99.90
15615;DHT22;7907;51.368;6.730;2023-04-29T05:37:04;10.90;99.90
15615;DHT22;7907;51.368;6.730;2023-04-29T05:39:34;10.90;99.90
15615;DHT22;7907;51.368;6.730;2023-04-29T05:42:04;10.80;99.90
15615;DHT22;7907;51.368;6.730;2023-04-29T05:44:36;10.80;99.90
15615;DHT22;7907;51.368;6.730;2023-04-29T05:47:04;10.70;99.90
15615;DHT22;7907;51.368;6.730;2023-04-29T05:49:35;10.60;99.90
15615;DHT22;7907;51.368;6.730;2023-04-29T05:52:05;10.60;99.90
15615;DHT22;7907;51.368;6.730;2023-04-29T05:54:37;10.60;99.90
15615;DHT22;7907;51.368;6.730;2023-04-29T06:00:11;10.50;99.90
15615;DHT22;7907;51.368;6.730;2023-04-29T06:02:45;10.50;99.90
15615;DHT22;7907;51.368;6.730;2023-04-29T06:05:25;10.50;99.90
15615;DHT22;7907;51.368;6.730;2023-04-29T06:07:54;10.50;99.90
15615;DHT22;7907;51.368;6.730;2023-04-29T06:10:24;10.60;99.90
15615;DHT22;7907;51.368;6.730;2023-04-29T06:12:51;10.50;99.90
15615;DHT22;7907;51.368;6.730;2023-04-29T06:15:20;10.60;99.90
15615;DHT22;7907;51.368;6.730;2023-04-29T06:17:50;10.50;99.90
15615;DHT22;7907;51.368;6.730;2023-04-29T06:20:22;10.50;99.90
15615;DHT22;7907;51.368;6.730;2023-04-29T06:22:51;10.60;99.90
15615;DHT22;7907;51.368;6.730;2023-04-29T06:25:25;10.50;99.90
15615;DHT22;7907;51.368;6.730;2023-04-29T06:28:03;10.60;99.90
15615;DHT22;7907;51.368;6.730;2023-04-29T06:33:27;10.60;99.90
15615;DHT22;7907;51.368;6.730;2023-04-29T06:36:15;10.70;99.90
15615;DHT22;7907;51.368;6.730;2023-04-29T06:44:29;10.80;99.90
15615;DHT22;7907;51.368;6.730;2023-04-29T06:47:11;10.90;99.90
15615;DHT22;7907;51.368;6.730;2023-04-29T06:49:44;11.00;99.90
15615;DHT22;7907;51.368;6.730;2023-04-29T06:52:14;10.90;99.90
15615;DHT22;7907;51.368;6.730;2023-04-29T06:54:41;10.90;99.90
15615;DHT22;7907;51.368;6.730;2023-04-29T06:57:14;10.90;99.90
15615;DHT22;7907;51.368;6.730;2023-04-29T06:59:44;10.90;99.90
15615;DHT22;7907;51.368;6.730;2023-04-29T07:02:14;10.80;99.90
15615;DHT22;7907;51.368;6.730;2023-04-29T07:04:44;10.80;99.90
15615;DHT22;7907;51.368;6.730;2023-04-29T07:07:17;10.80;99.90
15615;DHT22;7907;51.368;6.730;2023-04-29T07:10:13;10.90;99.90
15615;DHT22;7907;51.368;6.730;2023-04-29T07:12:40;10.90;99.90
15615;DHT22;7907;51.368;6.730;2023-04-29T07:15:11;11.00;99.90
15615;DHT22;7907;51.368;6.730;2023-04-29T07:17:41;11.00;99.90
15615;DHT22;7907;51.368;6.730;2023-04-29T07:20:12;11.00;99.90
15615;DHT22;7907;51.368;6.730;2023-04-29T07:22:46;11.10;99.90
15615;DHT22;7907;51.368;6.730;2023-04-29T07:25:20;11.10;99.90
15615;DHT22;7907;51.368;6.730;2023-04-29T07:27:58;11.10;99.90
15615;DHT22;7907;51.368;6.730;2023-04-29T07:30:29;11.10;99.90
15615;DHT22;7907;51.368;6.730;2023-04-29T07:33:01;11.20;99.90
15615;DHT22;7907;51.368;6.730;2023-04-29T07:35:30;11.20;99.90
15615;DHT22;7907;51.368;6.730;2023-04-29T07:37:57;11.20;99.90
15615;DHT22;7907;51.368;6.730;2023-04-29T07:40:24;11.30;99.90
15615;DHT22;7907;51.368;6.730;2023-04-29T07:42:54;11.30;99.90
15615;DHT22;7907;51.368;6.730;2023-04-29T07:45:31;11.40;99.90
15615;DHT22;7907;51.368;6.730;2023-04-29T07:48:01;11.40;99.90
15615;DHT22;7907;51.368;6.730;2023-04-29T07:50:30;11.50;99.90
15615;DHT22;7907;51.368;6.730;2023-04-29T07:53:01;11.50;99.90
15615;DHT22;7907;51.368;6.730;2023-04-29T07:55:28;11.40;99.90
15615;DHT22;7907;51.368;6.730;2023-04-29T07:57:55;11.40;99.90
15615;DHT22;7907;51.368;6.730;2023-04-29T08:00:22;11.40;99.90
15615;DHT22;7907;51.368;6.730;2023-04-29T08:02:50;11.40;99.90
15615;DHT22;7907;51.368;6.730;2023-04-29T08:05:17;11.40;99.90
15615;DHT22;7907;51.368;6.730;2023-04-29T08:07:48;11.40;99.90
15615;DHT22;7907;51.368;6.730;2023-04-29T08:10:17;11.40;99.90
15615;DHT22;7907;51.368;6.730;2023-04-29T08:12:48;11.40;99.90
15615;DHT22;7907;51.368;6.730;2023-04-29T08:15:15;11.30;99.90
15615;DHT22;7907;51.368;6.730;2023-04-29T08:17:44;11.30;99.90
15615;DHT22;7907;51.368;6.730;2023-04-29T08:20:11;11.30;99.90
15615;DHT22;7907;51.368;6.730;2023-04-29T08:22:39;11.20;99.90
15615;DHT22;7907;51.368;6.730;2023-04-29T08:25:09;11.20;99.90
15615;DHT22;7907;51.368;6.730;2023-04-29T08:29:53;11.20;99.90
15615;DHT22;7907;51.368;6.730;2023-04-29T09:02:38;11.50;99.90
15615;DHT22;7907;51.368;6.730;2023-04-29T09:08:23;11.50;99.90
15615;DHT22;7907;51.368;6.730;2023-04-29T09:11:01;11.50;99.90
15615;DHT22;7907;51.368;6.730;2023-04-29T09:13:34;11.50;99.90
15615;DHT22;7907;51.368;6.730;2023-04-29T09:18:44;11.60;99.90
15615;DHT22;7907;51.368;6.730;2023-04-29T09:21:14;11.60;99.90
15615;DHT22;7907;51.368;6.730;2023-04-29T09:23:42;11.60;99.90
15615;DHT22;7907;51.368;6.730;2023-04-29T09:26:09;11.60;99.90
15615;DHT22;7907;51.368;6.730;2023-04-29T09:28:36;11.70;99.90
15615;DHT22;7907;51.368;6.730;2023-04-29T09:31:07;11.70;99.90
15615;DHT22;7907;51.368;6.730;2023-04-29T09:36:44;11.70;99.90
15615;DHT22;7907;51.368;6.730;2023-04-29T09:39:12;11.80;99.90
15615;DHT22;7907;51.368;6.730;2023-04-29T09:41:40;11.80;99.90
15615;DHT22;7907;51.368;6.730;2023-04-29T09:44:11;11.80;99.90
15615;DHT22;7907;51.368;6.730;2023-04-29T09:46:40;11.90;99.90
15615;DHT22;7907;51.368;6.730;2023-04-29T09:49:21;12.00;99.90
15615;DHT22;7907;51.368;6.730;2023-04-29T09:51:54;12.00;99.90
15615;DHT22;7907;51.368;6.730;2023-04-29T09:54:21;12.10;99.90
15615;DHT22;7907;51.368;6.730;2023-04-29T09:56:49;12.10;99.90
15615;DHT22;7907;51.368;6.730;2023-04-29T09:59:17;12.10;99.90
15615;DHT22;7907;51.368;6.730;2023-04-29T10:01:45;12.10;99.90
15615;DHT22;7907;51.368;6.730;2023-04-29T10:04:13;12.10;99.90
15615;DHT22;7907;51.368;6.730;2023-04-29T10:06:56;12.20;99.90
15615;DHT22;7907;51.368;6.730;2023-04-29T10:09:23;12.20;99.90
15615;DHT22;7907;51.368;6.730;2023-04-29T10:11:51;12.30;99.90
15615;DHT22;7907;51.368;6.730;2023-04-29T10:14:18;12.30;99.90
15615;DHT22;7907;51.368;6.730;2023-04-29T10:16:46;12.30;99.90
15615;DHT22;7907;51.368;6.730;2023-04-29T10:19:22;12.40;99.90
15615;DHT22;7907;51.368;6.730;2023-04-29T10:21:52;12.50;99.90
15615;DHT22;7907;51.368;6.730;2023-04-29T10:24:22;12.60;99.90
15615;DHT22;7907;51.368;6.730;2023-04-29T10:26:51;12.60;99.90
15615;DHT22;7907;51.368;6.730;2023-04-29T10:29:20;12.70;99.90
15615;DHT22;7907;51.368;6.730;2023-04-29T10:31:48;12.60;99.90
15615;DHT22;7907;51.368;6.730;2023-04-29T10:34:15;12.70;99.90
15615;DHT22;7907;51.368;6.730;2023-04-29T10:36:43;12.80;99.90
15615;DHT22;7907;51.368;6.730;2023-04-29T10:39:12;12.80;99.90
15615;DHT22;7907;51.368;6.730;2023-04-29T10:41:44;12.90;99.90
15615;DHT22;7907;51.368;6.730;2023-04-29T10:44:15;12.90;99.90
15615;DHT22;7907;51.368;6.730;2023-04-29T10:47:05;12.90;99.90
15615;DHT22;7907;51.368;6.730;2023-04-29T10:49:54;13.00;99.90
15615;DHT22;7907;51.368;6.730;2023-04-29T10:52:28;13.10;99.90
15615;DHT22;7907;51.368;6.730;2023-04-29T10:55:01;13.20;99.90
15615;DHT22;7907;51.368;6.730;2023-04-29T10:57:31;13.30;99.90
15615;DHT22;7907;51.368;6.730;2023-04-29T10:59:58;13.30;99.90
15615;DHT22;7907;51.368;6.730;2023-04-29T11:02:25;13.40;99.90
15615;DHT22;7907;51.368;6.730;2023-04-29T11:05:05;13.50;99.90
15615;DHT22;7907;51.368;6.730;2023-04-29T11:07:32;13.60;99.90
15615;DHT22;7907;51.368;6.730;2023-04-29T11:10:00;13.70;99.90
15615;DHT22;7907;51.368;6.730;2023-04-29T11:12:27;13.90;99.90
15615;DHT22;7907;51.368;6.730;2023-04-29T11:14:59;14.10;99.90
15615;DHT22;7907;51.368;6.730;2023-04-29T11:17:33;14.20;99.90
15615;DHT22;7907;51.368;6.730;2023-04-29T11:20:01;14.40;99.90
15615;DHT22;7907;51.368;6.730;2023-04-29T11:22:29;14.50;99.90
15615;DHT22;7907;51.368;6.730;2023-04-29T12:08:15;16.40;99.90
15615;DHT22;7907;51.368;6.730;2023-04-29T12:16:57;16.80;99.90
15615;DHT22;7907;51.368;6.730;2023-04-29T13:09:48;17.10;99.90
15615;DHT22;7907;51.368;6.730;2023-04-29T13:15:04;16.90;99.90
15615;DHT22;7907;51.368;6.730;2023-04-29T13:15:47;16.70;99.90
15615;DHT22;7907;51.368;6.730;2023-04-29T13:18:50;16.70;99.90
15615;DHT22;7907;51.368;6.730;2023-04-29T13:21:19;16.70;99.90
15615;DHT22;7907;51.368;6.730;2023-04-29T13:24:01;16.50;99.90
15615;DHT22;7907;51.368;6.730;2023-04-29T13:26:39;16.40;99.90
15615;DHT22;7907;51.368;6.730;2023-04-29T13:29:07;16.40;99.90
15615;DHT22;7907;51.368;6.730;2023-04-29T13:33:24;16.30;99.90
15615;DHT22;7907;51.368;6.730;2023-04-29T13:39:43;16.30;99.90
15615;DHT22;7907;51.368;6.730;2023-04-29T13:59:52;16.50;99.90
15615;DHT22;7907;51.368;6.730;2023-04-29T14:02:30;16.60;99.90
15615;DHT22;7907;51.368;6.730;2023-04-29T14:07:46;16.50;99.90
15615;DHT22;7907;51.368;6.730;2023-04-29T14:16:39;16.70;99.90
15615;DHT22;7907;51.368;6.730;2023-04-29T14:22:20;16.80;99.90
15615;DHT22;7907;51.368;6.730;2023-04-29T14:31:02;16.90;99.90
15615;DHT22;7907;51.368;6.730;2023-04-29T15:16:21;17.50;94.30
15615;DHT22;7907;51.368;6.730;2023-04-29T15:54:22;22.70;65.90
15615;DHT22;7907;51.368;6.730;2023-04-29T16:00:11;22.30;65.10
15615;DHT22;7907;51.368;6.730;2023-04-29T16:20:55;19.60;70.20
15615;DHT22;7907;51.368;6.730;2023-04-29T16:23:36;19.30;71.60
15615;DHT22;7907;51.368;6.730;2023-04-29T16:26:25;19.10;72.00
15615;DHT22;7907;51.368;6.730;2023-04-29T16:28:59;18.60;73.00
15615;DHT22;7907;51.368;6.730;2023-04-29T16:44:10;17.80;81.80
15615;DHT22;7907;51.368;6.730;2023-04-29T16:46:56;17.60;82.30
15615;DHT22;7907;51.368;6.730;2023-04-29T16:52:34;17.40;86.30
15615;DHT22;7907;51.368;6.730;2023-04-29T16:55:39;17.40;87.10
15615;DHT22;7907;51.368;6.730;2023-04-29T16:58:10;17.20;85.50
15615;DHT22;7907;51.368;6.730;2023-04-29T17:00:41;17.10;85.60
15615;DHT22;7907;51.368;6.730;2023-04-29T17:03:08;17.00;88.10
15615;DHT22;7907;51.368;6.730;2023-04-29T17:05:52;17.00;90.20
15615;DHT22;7907;51.368;6.730;2023-04-29T17:08:30;16.90;90.30
15615;DHT22;7907;51.368;6.730;2023-04-29T17:13:57;16.80;92.60
15615;DHT22;7907;51.368;6.730;2023-04-29T17:47:09;16.00;99.90
15615;DHT22;7907;51.368;6.730;2023-04-29T17:50:00;15.90;99.90
15615;DHT22;7907;51.368;6.730;2023-04-29T18:23:58;15.80;99.90
15615;DHT22;7907;51.368;6.730;2023-04-29T18:26:33;15.70;99.90
15615;DHT22;7907;51.368;6.730;2023-04-29T18:29:04;15.70;99.90
15615;DHT22;7907;51.368;6.730;2023-04-29T18:34:32;15.60;99.90
15615;DHT22;7907;51.368;6.730;2023-04-29T20:39:08;13.90;99.90
15615;DHT22;7907;51.368;6.730;2023-04-29T20:44:34;13.90;99.90
15615;DHT22;7907;51.368;6.730;2023-04-29T20:47:22;13.80;99.90
15615;DHT22;7907;51.368;6.730;2023-04-29T20:50:05;13.80;99.90
15615;DHT22;7907;51.368;6.730;2023-04-29T20:52:35;13.70;99.90
15615;DHT22;7907;51.368;6.730;2023-04-29T20:55:06;13.70;99.90
15615;DHT22;7907;51.368;6.730;2023-04-29T21:04:56;13.60;99.90
15615;DHT22;7907;51.368;6.730;2023-04-29T21:06:28;13.50;99.90
15615;DHT22;7907;51.368;6.730;2023-04-29T21:09:11;13.50;99.90
15615;DHT22;7907;51.368;6.730;2023-04-29T21:11:46;13.50;99.90
15615;DHT22;7907;51.368;6.730;2023-04-29T21:14:25;13.40;99.90
15615;DHT22;7907;51.368;6.730;2023-04-29T21:16:53;13.40;99.90
15615;DHT22;7907;51.368;6.730;2023-04-29T21:19:26;13.40;99.90
15615;DHT22;7907;51.368;6.730;2023-04-29T21:22:51;13.30;99.90
15615;DHT22;7907;51.368;6.730;2023-04-29T21:25:18;13.30;99.90
15615;DHT22;7907;51.368;6.730;2023-04-29T21:30:36;13.10;99.90
15615;DHT22;7907;51.368;6.730;2023-04-29T21:33:06;13.10;99.90
15615;DHT22;7907;51.368;6.730;2023-04-29T21:35:40;13.00;99.90
15615;DHT22;7907;51.368;6.730;2023-04-29T21:38:22;13.00;99.90
15615;DHT22;7907;51.368;6.730;2023-04-29T21:40:49;12.90;99.90
15615;DHT22;7907;51.368;6.730;2023-04-29T21:43:31;12.80;99.90
15615;DHT22;7907;51.368;6.730;2023-04-29T21:46:12;12.80;99.90
15615;DHT22;7907;51.368;6.730;2023-04-29T21:49:02;12.70;99.90
15615;DHT22;7907;51.368;6.730;2023-04-29T21:51:46;12.60;99.90
15615;DHT22;7907;51.368;6.730;2023-04-29T21:54:35;12.60;99.90
15615;DHT22;7907;51.368;6.730;2023-04-29T21:57:28;12.50;99.90
15615;DHT22;7907;51.368;6.730;2023-04-29T22:00:18;12.50;99.90
15615;DHT22;7907;51.368;6.730;2023-04-29T22:09:05;12.20;99.90
15615;DHT22;7907;51.368;6.730;2023-04-29T22:15:03;12.10;99.90
15615;DHT22;7907;51.368;6.730;2023-04-29T22:17:46;12.10;99.90
15615;DHT22;7907;51.368;6.730;2023-04-29T22:20:18;12.10;99.90
15615;DHT22;7907;51.368;6.730;2023-04-29T22:22:53;12.00;99.90
15615;DHT22;7907;51.368;6.730;2023-04-29T22:25:25;12.00;99.90
15615;DHT22;7907;51.368;6.730;2023-04-29T22:28:03;11.90;99.90
15615;DHT22;7907;51.368;6.730;2023-04-29T22:30:49;11.90;99.90
15615;DHT22;7907;51.368;6.730;2023-04-29T22:33:19;11.80;99.90
15615;DHT22;7907;51.368;6.730;2023-04-29T22:35:50;11.80;99.90
15615;DHT22;7907;51.368;6.730;2023-04-29T22:38:25;11.80;99.90
15615;DHT22;7907;51.368;6.730;2023-04-29T22:40:55;11.70;99.90
15615;DHT22;7907;51.368;6.730;2023-04-29T22:43:36;11.70;99.90
15615;DHT22;7907;51.368;6.730;2023-04-29T22:46:06;11.60;99.90
15615;DHT22;7907;51.368;6.730;2023-04-29T22:48:40;11.60;99.90
15615;DHT22;7907;51.368;6.730;2023-04-29T22:51:07;11.50;99.90
15615;DHT22;7907;51.368;6.730;2023-04-29T22:53:38;11.50;99.90
15615;DHT22;7907;51.368;6.730;2023-04-29T22:56:06;11.50;99.90
15615;DHT22;7907;51.368;6.730;2023-04-29T22:58:36;11.40;99.90
15615;DHT22;7907;51.368;6.730;2023-04-29T23:01:04;11.40;99.90
15615;DHT22;7907;51.368;6.730;2023-04-29T23:03:31;11.30;99.90
15615;DHT22;7907;51.368;6.730;2023-04-29T23:05:59;11.30;99.90
15615;DHT22;7907;51.368;6.730;2023-04-29T23:08:26;11.30;99.90
15615;DHT22;7907;51.368;6.730;2023-04-29T23:10:59;11.20;99.90
15615;DHT22;7907;51.368;6.730;2023-04-29T23:13:35;11.20;99.90
15615;DHT22;7907;51.368;6.730;2023-04-29T23:16:05;11.20;99.90
15615;DHT22;7907;51.368;6.730;2023-04-29T23:18:39;11.10;99.90
15615;DHT22;7907;51.368;6.730;2023-04-29T23:21:23;11.10;99.90
15615;DHT22;7907;51.368;6.730;2023-04-29T23:24:14;11.00;99.90
15615;DHT22;7907;51.368;6.730;2023-04-29T23:26:53;11.00;99.90
15615;DHT22;7907;51.368;6.730;2023-04-29T23:29:30;11.00;99.90
15615;DHT22;7907;51.368;6.730;2023-04-29T23:32:06;10.90;99.90
15615;DHT22;7907;51.368;6.730;2023-04-29T23:34:55;10.90;99.90
15615;DHT22;7907;51.368;6.730;2023-04-29T23:40:29;10.80;99.90
15615;DHT22;7907;51.368;6.730;2023-04-29T23:43:12;10.70;99.90
15615;DHT22;7907;51.368;6.730;2023-04-29T23:58:31;10.60;99.90
